createdAt,value
2022-12-24T00:00:22.328Z,93126.45
2022-12-24T00:01:15.721Z,93121.48
2022-12-24T00:01:49.684Z,93121.98
2022-12-24T00:02:23.323Z,93119.89
2022-12-24T00:02:56.922Z,93122.36
2022-12-24T00:03:30.564Z,93124.20
2022-12-24T00:04:04.462Z,93122.56
2022-12-24T00:04:39.517Z,93128.34
2022-12-24T00:05:13.601Z,93123.23
2022-12-24T00:05:47.012Z,93121.98
2022-12-24T00:06:23.908Z,93119.52
2022-12-24T00:06:57.246Z,93117.61
2022-12-24T00:07:30.563Z,93118.81
2022-12-24T00:08:03.981Z,93116.41
2022-12-24T00:08:37.413Z,93119.15
2022-12-24T00:09:10.749Z,93115.66
2022-12-24T00:09:44.231Z,93120.21
2022-12-24T00:10:17.685Z,93119.67
2022-12-24T00:10:54.538Z,93123.61
2022-12-24T00:11:28.021Z,93123.94
2022-12-24T00:12:01.358Z,93121.73
2022-12-24T00:12:34.682Z,93120.19
2022-12-24T00:13:07.964Z,93119.86
2022-12-24T00:13:41.329Z,93121.65
2022-12-24T00:14:14.770Z,93124.10
2022-12-24T00:14:48.096Z,93117.11
2022-12-24T00:15:21.388Z,93116.36
2022-12-24T00:15:54.701Z,93122.00
2022-12-24T00:16:28.470Z,93119.75
2022-12-24T00:17:02.012Z,93119.90
2022-12-24T00:17:35.392Z,93126.59
2022-12-24T00:18:08.729Z,93123.05
2022-12-24T00:18:46.325Z,93124.27
2022-12-24T00:19:20.438Z,93122.77
2022-12-24T00:19:53.725Z,93123.70
2022-12-24T00:20:27.060Z,93123.27
2022-12-24T00:21:02.019Z,93126.30
2022-12-24T00:21:35.358Z,93123.69
2022-12-24T00:22:09.093Z,93128.31
2022-12-24T00:22:42.658Z,93128.20
2022-12-24T00:23:16.918Z,93130.31
2022-12-24T00:23:50.393Z,93130.13
2022-12-24T00:24:23.850Z,93127.00
2022-12-24T00:24:58.534Z,93126.94
2022-12-24T00:25:32.130Z,93127.63
2022-12-24T00:26:05.628Z,93119.91
2022-12-24T00:26:39.208Z,93120.53
2022-12-24T00:27:12.609Z,93123.03
2022-12-24T00:27:46.774Z,93124.45
2022-12-24T00:28:20.120Z,93123.10
2022-12-24T00:28:53.508Z,93125.23
2022-12-24T00:29:26.841Z,93126.23
2022-12-24T00:30:00.241Z,93126.25
2022-12-24T00:30:33.673Z,93127.52
2022-12-24T00:31:15.773Z,93131.65
2022-12-24T00:31:49.334Z,93128.28
2022-12-24T00:32:22.738Z,93131.95
2022-12-24T00:32:56.110Z,93130.91
2022-12-24T00:33:29.549Z,93132.11
2022-12-24T00:34:02.899Z,93128.80
2022-12-24T00:34:40.093Z,93136.41
2022-12-24T00:35:13.670Z,93138.95
2022-12-24T00:35:51.594Z,93136.80
2022-12-24T00:36:24.967Z,93136.11
2022-12-24T00:36:58.391Z,93134.36
2022-12-24T00:37:31.881Z,93139.25
2022-12-24T00:38:05.737Z,93144.73
2022-12-24T00:38:39.406Z,93148.64
2022-12-24T00:39:12.875Z,93145.62
2022-12-24T00:39:46.479Z,93144.84
2022-12-24T00:40:19.857Z,93138.82
2022-12-24T00:41:01.961Z,93141.83
2022-12-24T00:41:35.624Z,93136.64
2022-12-24T00:42:08.908Z,93138.58
2022-12-24T00:42:42.429Z,93135.98
2022-12-24T00:43:15.820Z,93134.62
2022-12-24T00:43:49.307Z,93136.59
2022-12-24T00:44:22.672Z,93136.22
2022-12-24T00:44:56.071Z,93134.14
2022-12-24T00:45:29.836Z,93131.05
2022-12-24T00:46:03.369Z,93135.41
2022-12-24T00:46:39.372Z,93140.02
2022-12-24T00:47:13.053Z,93138.90
2022-12-24T00:47:46.412Z,93137.35
2022-12-24T00:48:19.883Z,93132.80
2022-12-24T00:48:54.100Z,93131.48
2022-12-24T00:49:27.621Z,93138.99
2022-12-24T00:50:03.608Z,93135.30
2022-12-24T00:50:36.871Z,93140.23
2022-12-24T00:51:11.247Z,93137.45
2022-12-24T00:51:45.126Z,93143.32
2022-12-24T00:52:18.590Z,93138.54
2022-12-24T00:52:52.191Z,93139.83
2022-12-24T00:53:26.412Z,93143.16
2022-12-24T00:54:00.344Z,93145.56
2022-12-24T00:54:33.719Z,93149.01
2022-12-24T00:55:07.995Z,93151.18
2022-12-24T00:55:41.486Z,93153.79
2022-12-24T00:56:45.579Z,93159.70
2022-12-24T00:57:19.325Z,93152.20
2022-12-24T00:57:52.501Z,93157.13
2022-12-24T00:58:25.658Z,93161.37
2022-12-24T00:58:58.966Z,93166.21
2022-12-24T00:59:32.231Z,93162.07
2022-12-24T01:00:06.324Z,93157.94
2022-12-24T01:00:39.609Z,93159.55
2022-12-24T01:01:13.719Z,93151.66
2022-12-24T01:01:47.171Z,93155.33
2022-12-24T01:02:20.624Z,93154.77
2022-12-24T01:02:54.165Z,93157.65
2022-12-24T01:03:36.758Z,93158.10
2022-12-24T01:04:29.126Z,93154.91
2022-12-24T01:05:11.502Z,93164.63
2022-12-24T01:05:44.727Z,93156.98
2022-12-24T01:06:21.616Z,93167.58
2022-12-24T01:06:54.818Z,93172.70
2022-12-24T01:07:28.056Z,93166.90
2022-12-24T01:08:01.435Z,93169.84
2022-12-24T01:08:41.755Z,93175.11
2022-12-24T01:09:24.829Z,93170.87
2022-12-24T01:09:59.396Z,93175.29
2022-12-24T01:10:36.362Z,93174.27
2022-12-24T01:11:10.917Z,93176.63
2022-12-24T01:11:47.780Z,93184.55
2022-12-24T01:12:29.681Z,93179.09
2022-12-24T01:13:06.611Z,93181.46
2022-12-24T01:13:40.198Z,93187.78
2022-12-24T01:14:13.449Z,93181.08
2022-12-24T01:14:47.197Z,93175.48
2022-12-24T01:15:20.575Z,93181.48
2022-12-24T01:15:53.910Z,93179.48
2022-12-24T01:16:27.239Z,93174.10
2022-12-24T01:17:00.449Z,93183.34
2022-12-24T01:17:34.860Z,93180.10
2022-12-24T01:18:11.457Z,93180.82
2022-12-24T01:20:01.825Z,93185.01
2022-12-24T01:20:47.000Z,93184.82
2022-12-24T01:21:20.878Z,93173.96
2022-12-24T01:21:54.079Z,93190.00
2022-12-24T01:22:27.323Z,93180.81
2022-12-24T01:23:00.584Z,93190.31
2022-12-24T01:23:33.774Z,93185.31
2022-12-24T01:24:07.006Z,93186.84
2022-12-24T01:24:43.284Z,93189.25
2022-12-24T01:25:22.217Z,93188.22
2022-12-24T01:26:26.342Z,93184.71
2022-12-24T01:26:59.732Z,93187.91
2022-12-24T01:27:33.540Z,93186.45
2022-12-24T01:28:07.024Z,93186.33
2022-12-24T01:28:43.430Z,93186.61
2022-12-24T01:29:17.752Z,93194.50
2022-12-24T01:30:06.082Z,93190.36
2022-12-24T01:36:08.243Z,93202.89
2022-12-24T01:36:41.753Z,93205.41
2022-12-24T01:37:24.691Z,93211.95
2022-12-24T01:37:58.164Z,93211.90
2022-12-24T01:38:31.920Z,93205.69
2022-12-24T01:39:05.518Z,93202.33
2022-12-24T01:39:38.998Z,93210.85
2022-12-24T01:40:40.269Z,93207.54
2022-12-24T01:41:38.914Z,93213.89
2022-12-24T01:42:42.542Z,93213.06
2022-12-24T01:43:24.612Z,93211.96
2022-12-24T01:43:58.027Z,93209.99
2022-12-24T01:44:37.465Z,93208.69
2022-12-24T01:45:41.017Z,93206.46
2022-12-24T01:46:22.866Z,93216.30
2022-12-24T01:47:03.455Z,93214.16
2022-12-24T01:47:37.010Z,93217.53
2022-12-24T01:48:27.962Z,93218.48
2022-12-24T01:49:04.927Z,93218.55
2022-12-24T01:51:24.988Z,93221.56
2022-12-24T01:52:25.983Z,93223.33
2022-12-24T01:53:01.857Z,93228.00
2022-12-24T01:53:40.258Z,93224.92
2022-12-24T01:54:36.940Z,93226.43
2022-12-24T01:55:18.785Z,93221.11
2022-12-24T01:56:02.605Z,93220.93
2022-12-24T01:56:40.445Z,93222.34
2022-12-24T01:57:21.687Z,93215.99
2022-12-24T01:57:58.724Z,93217.76
2022-12-24T01:58:36.516Z,93223.81
2022-12-24T01:59:16.667Z,93223.23
2022-12-24T02:01:50.620Z,93219.11
2022-12-24T02:02:29.030Z,93224.76
2022-12-24T02:03:09.354Z,93223.48
2022-12-24T02:03:25.264Z,93216.27
2022-12-24T02:03:48.344Z,93214.87
2022-12-24T02:04:42.708Z,93217.05
2022-12-24T02:05:35.245Z,93215.95
2022-12-24T02:06:10.811Z,93212.46
2022-12-24T02:06:44.507Z,93202.27
2022-12-24T02:07:18.116Z,93195.49
2022-12-24T02:07:51.818Z,93195.48
2022-12-24T02:08:42.072Z,93196.42
2022-12-24T02:11:22.791Z,93217.34
2022-12-24T02:11:59.553Z,93216.05
2022-12-24T02:12:36.220Z,93225.89
2022-12-24T02:13:10.308Z,93223.13
2022-12-24T02:13:49.321Z,93224.86
2022-12-24T02:14:32.407Z,93225.39
2022-12-24T02:15:09.602Z,93227.55
2022-12-24T02:16:02.522Z,93225.00
2022-12-24T02:16:53.829Z,93227.59
2022-12-24T02:17:52.535Z,93234.66
2022-12-24T02:18:38.129Z,93236.17
2022-12-24T02:19:39.738Z,93241.70
2022-12-24T02:22:32.730Z,93259.67
2022-12-24T02:22:42.162Z,93200.34
2022-12-24T02:23:12.344Z,93271.66
2022-12-24T02:24:08.869Z,93290.32
2022-12-24T02:25:10.688Z,93276.69
2022-12-24T02:25:58.297Z,93273.58
2022-12-24T02:26:54.695Z,93282.29
2022-12-24T02:27:50.065Z,93273.63
2022-12-24T02:29:08.762Z,93284.29
2022-12-24T02:30:07.178Z,93273.91
2022-12-24T02:30:52.988Z,93269.02
2022-12-24T02:31:49.716Z,93277.80
2022-12-24T02:32:27.049Z,93262.52
2022-12-24T02:33:25.066Z,93267.17
2022-12-24T02:34:11.243Z,93273.69
2022-12-24T02:35:01.518Z,93262.38
2022-12-24T02:35:37.735Z,93268.31
2022-12-24T02:36:19.146Z,93273.23
2022-12-24T02:37:02.585Z,93266.44
2022-12-24T02:37:41.062Z,93262.48
2022-12-24T02:38:24.513Z,93264.66
2022-12-24T02:39:06.495Z,93268.20
2022-12-24T02:40:00.072Z,93266.95
2022-12-24T02:41:07.540Z,93263.27
2022-12-24T02:42:05.438Z,93258.25
2022-12-24T02:42:42.518Z,93260.55
2022-12-24T02:43:23.945Z,93256.84
2022-12-24T02:43:58.645Z,93259.41
2022-12-24T02:44:41.582Z,93257.03
2022-12-24T02:45:18.287Z,93247.81
2022-12-24T02:45:59.827Z,93255.27
2022-12-24T02:46:36.106Z,93252.70
2022-12-24T02:47:25.563Z,93250.52
2022-12-24T02:48:01.168Z,93248.84
2022-12-24T02:48:36.941Z,93256.85
2022-12-24T03:02:57.053Z,93245.95
2022-12-24T03:03:48.779Z,93246.99
2022-12-24T03:04:39.864Z,93248.16
2022-12-24T03:05:27.902Z,93244.73
2022-12-24T03:06:09.266Z,93256.27
2022-12-24T03:07:03.521Z,93250.11
2022-12-24T03:07:50.963Z,93248.35
2022-12-24T03:08:35.618Z,93262.64
2022-12-24T03:09:33.958Z,93262.41
2022-12-24T03:10:27.232Z,93265.73
2022-12-24T03:11:10.601Z,93252.71
2022-12-24T03:11:53.198Z,93250.98
2022-12-24T03:12:44.216Z,93257.90
2022-12-24T03:13:18.738Z,93253.79
2022-12-24T03:13:54.002Z,93256.47
2022-12-24T03:14:28.359Z,93254.73
2022-12-24T03:15:01.595Z,93260.83
2022-12-24T03:15:34.697Z,93259.39
2022-12-24T03:16:14.600Z,93260.38
2022-12-24T03:16:47.099Z,93259.61
2022-12-24T03:17:20.448Z,93257.95
2022-12-24T03:17:56.999Z,93257.17
2022-12-24T03:18:30.538Z,93258.39
2022-12-24T03:19:03.462Z,93272.32
2022-12-24T03:19:35.841Z,93267.95
2022-12-24T03:20:10.427Z,93263.60
2022-12-24T03:20:48.398Z,93269.93
2022-12-24T03:21:36.079Z,93268.73
2022-12-24T03:22:10.357Z,93272.46
2022-12-24T03:23:06.800Z,93275.26
2022-12-24T03:23:40.251Z,93271.11
2022-12-24T03:24:12.390Z,93275.71
2022-12-24T03:24:44.663Z,93273.70
2022-12-24T03:25:17.474Z,93265.11
2022-12-24T03:25:50.194Z,93272.77
2022-12-24T03:26:25.094Z,93268.02
2022-12-24T03:26:58.995Z,93265.45
2022-12-24T03:27:33.243Z,93266.21
2022-12-24T03:28:14.890Z,93267.41
2022-12-24T03:30:02.438Z,93256.35
2022-12-24T03:32:42.217Z,93257.77
2022-12-24T03:33:14.799Z,93254.13
2022-12-24T03:33:49.965Z,93248.68
2022-12-24T03:34:22.021Z,93251.59
2022-12-24T03:34:54.622Z,93253.05
2022-12-24T03:35:26.624Z,93257.23
2022-12-24T03:36:07.804Z,93268.58
2022-12-24T03:36:40.264Z,93261.67
2022-12-24T03:37:18.517Z,93270.52
2022-12-24T03:37:50.668Z,93267.81
2022-12-24T03:42:32.615Z,93280.02
2022-12-24T03:43:04.823Z,93284.10
2022-12-24T03:43:36.803Z,93295.20
2022-12-24T03:44:09.093Z,93297.88
2022-12-24T03:44:41.344Z,93311.16
2022-12-24T03:45:13.634Z,93304.43
2022-12-24T03:45:49.961Z,93304.16
2022-12-24T03:49:48.405Z,93316.00
2022-12-24T03:50:26.402Z,93319.86
2022-12-24T03:51:05.397Z,93323.55
2022-12-24T03:51:40.333Z,93319.88
2022-12-24T03:52:12.466Z,93324.53
2022-12-24T03:52:44.663Z,93336.56
2022-12-24T03:53:16.683Z,93333.66
2022-12-24T03:53:48.961Z,93331.83
2022-12-24T03:54:25.309Z,93339.95
2022-12-24T03:56:02.017Z,93328.81
2022-12-24T03:56:52.336Z,93342.70
2022-12-24T03:58:01.908Z,93328.49
2022-12-24T03:58:34.214Z,93332.48
2022-12-24T03:59:20.841Z,93339.42
2022-12-24T03:59:52.955Z,93334.66
2022-12-24T04:00:24.903Z,93338.69
2022-12-24T04:00:56.909Z,93335.10
2022-12-24T04:01:29.049Z,93339.75
2022-12-24T04:02:05.596Z,93345.27
2022-12-24T04:04:42.364Z,93348.17
2022-12-24T04:05:26.889Z,93358.98
2022-12-24T04:06:58.333Z,93377.31
2022-12-24T04:07:32.044Z,93374.96
2022-12-24T04:08:04.114Z,93381.34
2022-12-24T04:08:40.528Z,93377.39
2022-12-24T04:09:12.681Z,93390.31
2022-12-24T04:09:44.820Z,93383.04
2022-12-24T04:10:27.257Z,93373.05
2022-12-24T04:11:17.737Z,93382.70
2022-12-24T04:12:03.044Z,93387.50
2022-12-24T04:12:35.744Z,93380.98
2022-12-24T04:13:07.806Z,93365.60
2022-12-24T04:13:39.938Z,93380.05
2022-12-24T04:14:12.426Z,93377.15
2022-12-24T04:14:44.505Z,93376.45
2022-12-24T04:16:56.042Z,93374.63
2022-12-24T04:19:20.871Z,93386.96
2022-12-24T04:19:53.068Z,93384.80
2022-12-24T04:20:25.202Z,93388.14
2022-12-24T04:20:57.623Z,93375.90
2022-12-24T04:21:29.743Z,93379.91
2022-12-24T04:21:59.703Z,93372.10
2022-12-24T04:22:01.887Z,93386.54
2022-12-24T04:22:34.027Z,93384.33
2022-12-24T04:23:06.092Z,93385.51
2022-12-24T04:23:40.449Z,93385.52
2022-12-24T04:24:12.760Z,93378.31
2022-12-24T04:24:45.020Z,93384.95
2022-12-24T04:25:17.113Z,93378.27
2022-12-24T04:25:49.474Z,93373.65
2022-12-24T04:26:21.527Z,93366.61
2022-12-24T04:27:17.049Z,93369.89
2022-12-24T04:27:49.108Z,93366.34
2022-12-24T04:28:21.148Z,93365.73
2022-12-24T04:28:53.188Z,93367.77
2022-12-24T04:29:26.944Z,93367.02
2022-12-24T04:29:58.939Z,93365.90
2022-12-24T04:30:31.111Z,93362.77
2022-12-24T04:31:06.589Z,93357.30
2022-12-24T04:31:38.767Z,93357.94
2022-12-24T04:32:10.935Z,93341.95
2022-12-24T04:32:43.269Z,93363.39
2022-12-24T04:33:15.326Z,93359.36
2022-12-24T04:33:47.438Z,93348.19
2022-12-24T04:34:19.540Z,93351.83
2022-12-24T04:34:51.583Z,93356.13
2022-12-24T04:35:23.725Z,93354.48
2022-12-24T04:35:59.736Z,93355.34
2022-12-24T04:36:37.341Z,93362.84
2022-12-24T04:37:09.358Z,93354.14
2022-12-24T04:37:43.187Z,93355.30
2022-12-24T04:38:15.252Z,93353.66
2022-12-24T04:38:48.400Z,93349.77
2022-12-24T04:39:20.446Z,93352.24
2022-12-24T04:40:39.474Z,93348.50
2022-12-24T04:41:05.497Z,93342.91
2022-12-24T04:41:37.492Z,93344.67
2022-12-24T04:42:09.494Z,93338.29
2022-12-24T04:42:48.981Z,93335.23
2022-12-24T04:43:21.075Z,93336.87
2022-12-24T04:43:54.942Z,93337.60
2022-12-24T04:44:34.068Z,93337.80
2022-12-24T04:45:06.660Z,93335.42
2022-12-24T04:45:38.703Z,93340.35
2022-12-24T04:46:35.003Z,93337.37
2022-12-24T04:47:17.328Z,93336.90
2022-12-24T04:48:03.958Z,93338.28
2022-12-24T04:48:38.951Z,93338.61
2022-12-24T04:49:11.519Z,93333.83
2022-12-24T04:49:43.776Z,93341.45
2022-12-24T04:50:30.316Z,93341.05
2022-12-24T04:51:06.111Z,93350.94
2022-12-24T04:51:39.810Z,93347.79
2022-12-24T04:53:00.583Z,93355.64
2022-12-24T04:53:38.195Z,93361.21
2022-12-24T04:54:10.305Z,93357.54
2022-12-24T04:54:44.752Z,93359.73
2022-12-24T04:55:16.849Z,93361.11
2022-12-24T04:55:48.976Z,93361.92
2022-12-24T04:56:27.164Z,93359.05
2022-12-24T04:56:59.289Z,93355.73
2022-12-24T04:57:33.300Z,93359.11
2022-12-24T04:58:05.271Z,93362.79
2022-12-24T04:59:07.626Z,93364.91
2022-12-24T04:59:56.199Z,93357.64
2022-12-24T05:00:28.073Z,93355.23
2022-12-24T05:01:08.052Z,93352.45
2022-12-24T05:01:40.166Z,93347.30
2022-12-24T05:02:12.666Z,93345.84
2022-12-24T05:02:45.084Z,93351.29
2022-12-24T05:03:20.009Z,93346.61
2022-12-24T05:04:08.886Z,93350.88
2022-12-24T05:04:43.167Z,93346.44
2022-12-24T05:05:17.773Z,93343.67
2022-12-24T05:05:49.870Z,93349.71
2022-12-24T05:06:26.209Z,93341.59
2022-12-24T05:06:58.224Z,93342.58
2022-12-24T05:07:31.388Z,93343.84
2022-12-24T05:09:31.995Z,93339.70
2022-12-24T05:12:07.354Z,93339.33
2022-12-24T05:12:14.166Z,93338.78
2022-12-24T05:12:39.437Z,93359.72
2022-12-24T05:13:11.528Z,93350.34
2022-12-24T05:13:47.603Z,93342.50
2022-12-24T05:14:24.067Z,93352.16
2022-12-24T05:14:56.074Z,93353.67
2022-12-24T05:15:28.189Z,93350.38
2022-12-24T05:16:00.389Z,93352.19
2022-12-24T05:16:41.468Z,93355.38
2022-12-24T05:17:28.139Z,93368.30
2022-12-24T05:18:00.170Z,93366.35
2022-12-24T05:18:32.372Z,93367.71
2022-12-24T05:19:04.415Z,93368.58
2022-12-24T05:19:37.284Z,93374.31
2022-12-24T05:20:40.905Z,93370.23
2022-12-24T05:22:29.502Z,93369.59
2022-12-24T05:23:20.071Z,93368.43
2022-12-24T05:24:11.483Z,93372.14
2022-12-24T05:25:02.196Z,93373.73
2022-12-24T05:25:57.508Z,93374.40
2022-12-24T05:26:41.631Z,93378.64
2022-12-24T05:27:16.271Z,93372.70
2022-12-24T05:28:31.666Z,93375.84
2022-12-24T05:29:06.005Z,93379.45
2022-12-24T05:29:38.056Z,93384.23
2022-12-24T05:30:10.319Z,93378.86
2022-12-24T05:30:42.679Z,93376.67
2022-12-24T05:31:15.508Z,93368.96
2022-12-24T05:31:47.965Z,93382.59
2022-12-24T05:32:20.028Z,93385.32
2022-12-24T05:32:52.045Z,93381.96
2022-12-24T05:33:23.997Z,93386.33
2022-12-24T05:33:56.418Z,93383.45
2022-12-24T05:34:28.422Z,93375.25
2022-12-24T05:35:08.852Z,93384.02
2022-12-24T05:35:40.964Z,93382.92
2022-12-24T05:36:29.409Z,93387.02
2022-12-24T05:37:01.506Z,93389.13
2022-12-24T05:37:39.079Z,93392.80
2022-12-24T05:38:55.643Z,93386.33
2022-12-24T05:39:25.524Z,93392.85
2022-12-24T05:39:57.512Z,93395.81
2022-12-24T05:41:58.129Z,93392.69
2022-12-24T05:42:50.829Z,93397.41
2022-12-24T05:43:23.017Z,93392.78
2022-12-24T05:43:55.980Z,93395.40
2022-12-24T05:44:39.515Z,93393.52
2022-12-24T05:45:13.839Z,93389.03
2022-12-24T05:45:49.062Z,93378.05
2022-12-24T05:46:23.253Z,93384.90
2022-12-24T05:46:55.840Z,93392.39
2022-12-24T05:47:28.030Z,93388.91
2022-12-24T05:48:00.236Z,93385.84
2022-12-24T05:48:32.745Z,93393.81
2022-12-24T05:49:04.900Z,93398.24
2022-12-24T05:49:36.946Z,93399.95
2022-12-24T05:49:46.161Z,93393.86
2022-12-24T05:50:11.390Z,93402.54
2022-12-24T05:50:43.583Z,93405.39
2022-12-24T05:51:20.071Z,93406.39
2022-12-24T05:51:52.103Z,93405.38
2022-12-24T05:52:24.121Z,93401.56
2022-12-24T05:52:56.131Z,93405.11
2022-12-24T05:53:28.189Z,93403.89
2022-12-24T05:54:00.476Z,93398.44
2022-12-24T05:54:32.539Z,93397.94
2022-12-24T05:55:05.154Z,93396.67
2022-12-24T05:55:37.279Z,93406.55
2022-12-24T05:56:18.376Z,93407.12
2022-12-24T05:56:50.264Z,93403.17
2022-12-24T05:57:22.364Z,93407.75
2022-12-24T05:57:54.438Z,93409.38
2022-12-24T05:58:26.388Z,93407.13
2022-12-24T05:58:58.419Z,93414.60
2022-12-24T05:59:30.522Z,93409.58
2022-12-24T06:00:03.100Z,93412.52
2022-12-24T06:00:44.327Z,93418.73
2022-12-24T06:01:16.846Z,93418.98
2022-12-24T06:01:49.270Z,93419.77
2022-12-24T06:02:21.479Z,93420.67
2022-12-24T06:02:53.612Z,93423.14
2022-12-24T06:03:25.721Z,93428.30
2022-12-24T06:03:58.127Z,93428.33
2022-12-24T06:04:30.522Z,93436.30
2022-12-24T06:05:02.878Z,93438.36
2022-12-24T06:05:35.172Z,93440.66
2022-12-24T06:06:13.755Z,93443.80
2022-12-24T06:06:45.810Z,93444.22
2022-12-24T06:07:17.808Z,93444.07
2022-12-24T06:07:49.863Z,93441.16
2022-12-24T06:08:21.914Z,93442.63
2022-12-24T06:08:55.001Z,93439.87
2022-12-24T06:09:27.074Z,93443.42
2022-12-24T06:09:59.122Z,93440.59
2022-12-24T06:10:31.260Z,93431.86
2022-12-24T06:11:06.144Z,93433.33
2022-12-24T06:11:38.256Z,93426.14
2022-12-24T06:12:10.281Z,93424.33
2022-12-24T06:12:42.312Z,93426.56
2022-12-24T06:13:14.547Z,93424.46
2022-12-24T06:13:46.829Z,93427.67
2022-12-24T06:14:18.830Z,93429.98
2022-12-24T06:14:50.870Z,93427.50
2022-12-24T06:15:24.280Z,93427.80
2022-12-24T06:16:00.291Z,93433.09
2022-12-24T06:16:32.528Z,93439.10
2022-12-24T06:17:04.644Z,93439.22
2022-12-24T06:17:36.916Z,93437.30
2022-12-24T06:18:09.015Z,93439.55
2022-12-24T06:18:41.945Z,93446.19
2022-12-24T06:19:14.008Z,93447.79
2022-12-24T06:19:46.053Z,93445.98
2022-12-24T06:20:18.164Z,93447.89
2022-12-24T06:20:51.902Z,93450.21
2022-12-24T06:21:24.001Z,93464.18
2022-12-24T06:21:56.156Z,93455.14
2022-12-24T06:22:28.285Z,93458.02
2022-12-24T06:23:00.426Z,93454.99
2022-12-24T06:23:37.487Z,93454.98
2022-12-24T06:24:09.564Z,93456.64
2022-12-24T06:24:41.678Z,93458.07
2022-12-24T06:25:13.817Z,93463.46
2022-12-24T06:25:46.842Z,93467.45
2022-12-24T06:26:21.663Z,93464.02
2022-12-24T06:26:53.754Z,93465.73
2022-12-24T06:27:25.807Z,93474.53
2022-12-24T06:27:57.824Z,93467.10
2022-12-24T06:28:32.619Z,93480.17
2022-12-24T06:29:05.739Z,93476.91
2022-12-24T06:29:37.816Z,93479.82
2022-12-24T06:30:10.331Z,93474.98
2022-12-24T06:30:47.108Z,93483.59
2022-12-24T06:31:21.232Z,93482.73
2022-12-24T06:31:53.697Z,93483.88
2022-12-24T06:32:25.980Z,93482.51
2022-12-24T06:32:58.160Z,93477.85
2022-12-24T06:33:33.911Z,93479.66
2022-12-24T06:34:06.039Z,93477.11
2022-12-24T06:34:38.139Z,93479.12
2022-12-24T06:35:10.333Z,93477.32
2022-12-24T06:35:44.962Z,93480.83
2022-12-24T06:36:20.426Z,93471.39
2022-12-24T06:36:52.561Z,93478.55
2022-12-24T06:37:24.616Z,93478.49
2022-12-24T06:37:56.608Z,93474.94
2022-12-24T06:38:31.771Z,93471.30
2022-12-24T06:39:03.857Z,93467.54
2022-12-24T06:39:35.931Z,93471.39
2022-12-24T06:40:08.754Z,93470.92
2022-12-24T06:40:43.019Z,93474.02
2022-12-24T06:41:16.919Z,93474.33
2022-12-24T06:41:48.972Z,93471.68
2022-12-24T06:42:21.045Z,93470.49
2022-12-24T06:42:53.138Z,93472.42
2022-12-24T06:43:25.279Z,93472.85
2022-12-24T06:43:57.393Z,93476.58
2022-12-24T06:44:29.416Z,93468.58
2022-12-24T06:45:07.852Z,93475.59
2022-12-24T06:45:45.375Z,93481.39
2022-12-24T06:46:18.048Z,93479.06
2022-12-24T06:46:50.190Z,93479.38
2022-12-24T06:47:22.319Z,93477.98
2022-12-24T06:47:54.400Z,93475.42
2022-12-24T06:48:26.613Z,93480.54
2022-12-24T06:49:00.226Z,93479.39
2022-12-24T06:49:32.290Z,93477.78
2022-12-24T06:50:05.130Z,93482.85
2022-12-24T06:50:37.818Z,93479.23
2022-12-24T06:51:09.976Z,93483.64
2022-12-24T06:51:42.085Z,93485.24
2022-12-24T06:52:14.311Z,93483.99
2022-12-24T06:52:46.824Z,93484.18
2022-12-24T06:53:18.837Z,93485.55
2022-12-24T06:53:51.699Z,93484.67
2022-12-24T06:54:23.724Z,93485.82
2022-12-24T06:54:55.816Z,93490.00
2022-12-24T06:55:28.101Z,93490.16
2022-12-24T06:56:07.161Z,93491.93
2022-12-24T06:56:39.837Z,93495.27
2022-12-24T06:57:11.935Z,93491.77
2022-12-24T06:57:44.218Z,93489.39
2022-12-24T06:58:16.347Z,93489.14
2022-12-24T06:58:48.849Z,93496.85
2022-12-24T06:59:21.040Z,93495.54
2022-12-24T06:59:53.096Z,93499.84
2022-12-24T07:00:25.544Z,93496.18
2022-12-24T07:00:57.587Z,93494.34
2022-12-24T07:01:29.657Z,93498.89
2022-12-24T07:02:01.964Z,93499.48
2022-12-24T07:02:34.290Z,93500.18
2022-12-24T07:03:06.557Z,93498.23
2022-12-24T07:03:38.946Z,93497.84
2022-12-24T07:04:14.608Z,93501.92
2022-12-24T07:04:52.001Z,93507.36
2022-12-24T07:05:24.093Z,93503.55
2022-12-24T07:05:56.202Z,93504.27
2022-12-24T07:06:29.853Z,93500.67
2022-12-24T07:07:01.889Z,93509.30
2022-12-24T07:07:35.035Z,93506.73
2022-12-24T07:08:08.673Z,93510.86
2022-12-24T07:08:40.759Z,93508.20
2022-12-24T07:09:14.065Z,93514.17
2022-12-24T07:09:46.054Z,93518.98
2022-12-24T07:10:19.569Z,93516.64
2022-12-24T07:10:54.478Z,93522.77
2022-12-24T07:11:26.759Z,93524.26
2022-12-24T07:11:58.897Z,93522.50
2022-12-24T07:12:31.008Z,93527.08
2022-12-24T07:13:03.066Z,93522.59
2022-12-24T07:13:35.179Z,93525.13
2022-12-24T07:14:07.234Z,93523.84
2022-12-24T07:14:39.297Z,93529.97
2022-12-24T07:15:13.135Z,93534.11
2022-12-24T07:15:45.332Z,93523.96
2022-12-24T07:16:17.864Z,93526.02
2022-12-24T07:16:55.220Z,93531.91
2022-12-24T07:17:30.834Z,93532.34
2022-12-24T07:18:02.881Z,93533.36
2022-12-24T07:18:35.151Z,93532.74
2022-12-24T07:19:07.138Z,93530.48
2022-12-24T07:19:39.275Z,93532.61
2022-12-24T07:20:14.417Z,93533.21
2022-12-24T07:20:46.410Z,93535.01
2022-12-24T07:21:18.401Z,93534.71
2022-12-24T07:21:50.429Z,93535.44
2022-12-24T07:22:22.954Z,93543.32
2022-12-24T07:22:54.988Z,93540.02
2022-12-24T07:23:27.057Z,93542.05
2022-12-24T07:23:59.160Z,93546.60
2022-12-24T07:24:31.118Z,93546.75
2022-12-24T07:25:03.268Z,93542.84
2022-12-24T07:25:42.404Z,93539.86
2022-12-24T07:26:14.477Z,93541.40
2022-12-24T07:26:46.666Z,93544.06
2022-12-24T07:27:18.770Z,93551.98
2022-12-24T07:27:50.849Z,93550.18
2022-12-24T07:28:27.909Z,93552.38
2022-12-24T07:29:00.300Z,93554.72
2022-12-24T07:29:32.343Z,93553.73
2022-12-24T07:30:05.208Z,93551.82
2022-12-24T07:30:37.262Z,93553.85
2022-12-24T07:31:09.303Z,93554.67
2022-12-24T07:31:41.436Z,93552.92
2022-12-24T07:32:13.635Z,93555.26
2022-12-24T07:32:45.717Z,93559.89
2022-12-24T07:33:17.829Z,93560.80
2022-12-24T07:33:50.180Z,93561.47
2022-12-24T07:34:22.342Z,93569.60
2022-12-24T07:34:54.495Z,93566.35
2022-12-24T07:35:26.532Z,93563.34
2022-12-24T07:36:00.949Z,93563.69
2022-12-24T07:36:33.075Z,93565.66
2022-12-24T07:37:06.023Z,93571.52
2022-12-24T07:37:38.142Z,93573.25
2022-12-24T07:38:10.517Z,93576.39
2022-12-24T07:38:42.719Z,93578.27
2022-12-24T07:39:29.200Z,93575.16
2022-12-24T07:40:01.444Z,93583.24
2022-12-24T07:40:34.566Z,93583.79
2022-12-24T07:41:06.660Z,93578.23
2022-12-24T07:41:41.768Z,93580.00
2022-12-24T07:42:14.334Z,93583.23
2022-12-24T07:42:46.420Z,93580.45
2022-12-24T07:43:18.392Z,93585.60
2022-12-24T07:43:50.488Z,93586.05
2022-12-24T07:44:22.546Z,93580.86
2022-12-24T07:44:54.631Z,93586.23
2022-12-24T07:45:26.932Z,93583.48
2022-12-24T07:45:59.427Z,93586.80
2022-12-24T07:46:31.402Z,93585.02
2022-12-24T07:47:03.622Z,93584.74
2022-12-24T07:47:36.013Z,93585.67
2022-12-24T07:48:08.066Z,93584.41
2022-12-24T07:48:40.868Z,93585.86
2022-12-24T07:49:13.067Z,93586.95
2022-12-24T07:49:45.224Z,93588.20
2022-12-24T07:50:17.371Z,93588.85
2022-12-24T07:50:50.313Z,93589.91
2022-12-24T07:51:22.304Z,93586.11
2022-12-24T07:51:54.297Z,93582.47
2022-12-24T07:52:26.232Z,93590.22
2022-12-24T07:52:58.284Z,93589.85
2022-12-24T07:53:31.048Z,93601.89
2022-12-24T07:54:04.477Z,93599.09
2022-12-24T07:54:36.617Z,93599.45
2022-12-24T07:55:08.797Z,93605.12